createdAt,value
2023-05-05T00:00:18.273Z,12.4
2023-05-05T00:01:18.263Z,12.4
2023-05-05T00:02:18.247Z,12.4
2023-05-05T00:03:18.333Z,12.4
2023-05-05T00:04:18.294Z,12.4
2023-05-05T00:05:18.233Z,12.4
2023-05-05T00:06:18.252Z,12.4
2023-05-05T00:07:18.243Z,12.4
2023-05-05T00:08:18.230Z,12.4
2023-05-05T00:09:18.214Z,12.4
2023-05-05T00:10:18.255Z,12.2
2023-05-05T00:11:18.276Z,12.2
2023-05-05T00:12:18.267Z,12.2
2023-05-05T00:13:18.296Z,12.2
2023-05-05T00:14:18.262Z,12.2
2023-05-05T00:15:18.278Z,12.2
2023-05-05T00:16:18.282Z,12.2
2023-05-05T00:17:18.306Z,12.2
2023-05-05T00:18:18.314Z,12.2
2023-05-05T00:19:18.298Z,12.2
2023-05-05T00:20:18.253Z,12.2
2023-05-05T00:21:18.264Z,12.2
2023-05-05T00:22:18.262Z,12.2
2023-05-05T00:23:18.276Z,12.2
2023-05-05T00:24:18.314Z,12.2
2023-05-05T00:25:18.279Z,12.2
2023-05-05T00:26:18.265Z,12.2
2023-05-05T00:27:18.300Z,12.2
2023-05-05T00:28:18.301Z,12.2
2023-05-05T00:29:18.273Z,12.2
2023-05-05T00:30:18.313Z,12.2
2023-05-05T00:31:18.346Z,12.2
2023-05-05T00:32:18.299Z,12.2
2023-05-05T00:33:18.280Z,12.2
2023-05-05T00:34:18.289Z,12.2
2023-05-05T00:35:18.308Z,12.2
2023-05-05T00:36:18.276Z,12.2
2023-05-05T00:37:18.318Z,12.2
2023-05-05T00:38:18.286Z,12.2
2023-05-05T00:39:18.293Z,12.2
2023-05-05T00:40:18.342Z,12.2
2023-05-05T00:41:18.328Z,12.2
2023-05-05T00:42:18.304Z,12.2
2023-05-05T00:43:18.309Z,12.2
2023-05-05T00:44:18.287Z,12.2
2023-05-05T00:45:18.346Z,12.2
2023-05-05T00:46:18.313Z,11.8
2023-05-05T00:47:18.283Z,11.8
2023-05-05T00:48:18.311Z,11.7
2023-05-05T00:49:18.329Z,11.7
2023-05-05T00:50:18.313Z,11.7
2023-05-05T00:51:18.325Z,11.7
2023-05-05T00:52:18.315Z,11.7
2023-05-05T00:53:18.318Z,11.7
2023-05-05T00:54:18.343Z,11.7
2023-05-05T00:55:18.351Z,11.7
2023-05-05T00:56:18.293Z,11.7
2023-05-05T00:57:18.331Z,11.7
2023-05-05T00:58:18.313Z,11.7
2023-05-05T00:59:18.346Z,11.7
2023-05-05T01:00:18.321Z,11.7
2023-05-05T01:01:18.341Z,11.7
2023-05-05T01:02:18.344Z,11.7
2023-05-05T01:03:18.434Z,11.7
2023-05-05T01:04:18.332Z,11.7
2023-05-05T01:05:18.363Z,11.7
2023-05-05T01:06:18.347Z,11.7
2023-05-05T01:07:18.328Z,11.7
2023-05-05T01:08:18.358Z,11.7
2023-05-05T01:09:18.396Z,11.7
2023-05-05T01:10:20.384Z,11.5
2023-05-05T01:11:18.332Z,11.5
2023-05-05T01:12:18.331Z,11.5
2023-05-05T01:13:18.322Z,11.5
2023-05-05T01:14:18.352Z,11.5
2023-05-05T01:15:18.392Z,11.5
2023-05-05T01:16:18.414Z,11.5
2023-05-05T01:17:18.354Z,11.5
2023-05-05T01:18:18.360Z,11.5
2023-05-05T01:19:18.357Z,11.5
2023-05-05T01:20:18.365Z,11.5
2023-05-05T01:21:18.377Z,11.5
2023-05-05T01:22:18.371Z,11.5
2023-05-05T01:23:18.392Z,11.5
2023-05-05T01:24:18.379Z,11.5
2023-05-05T01:25:18.382Z,11.5
2023-05-05T01:26:18.415Z,11.5
2023-05-05T01:27:18.367Z,11.5
2023-05-05T01:28:18.408Z,11.5
2023-05-05T01:29:18.394Z,11.5
2023-05-05T01:30:18.389Z,11.5
2023-05-05T01:31:18.507Z,11.5
2023-05-05T01:32:18.387Z,11.5
2023-05-05T01:33:18.388Z,11.5
2023-05-05T01:34:18.382Z,11.5
2023-05-05T01:35:18.443Z,11.5
2023-05-05T01:36:18.457Z,11.5
2023-05-05T01:37:18.390Z,11.5
2023-05-05T01:38:18.405Z,11.5
2023-05-05T01:39:18.396Z,11.5
2023-05-05T01:40:18.432Z,11.5
2023-05-05T01:41:18.388Z,11.5
2023-05-05T01:42:18.410Z,11.5
2023-05-05T01:43:18.401Z,11
2023-05-05T01:44:18.388Z,11
2023-05-05T01:45:18.442Z,11
2023-05-05T01:46:18.436Z,11
2023-05-05T01:47:18.452Z,11
2023-05-05T01:48:18.453Z,11
2023-05-05T01:49:18.435Z,11
2023-05-05T01:50:18.426Z,11
2023-05-05T01:51:18.438Z,11
2023-05-05T01:52:18.414Z,11
2023-05-05T01:53:18.433Z,11
2023-05-05T01:54:18.407Z,11
2023-05-05T01:55:18.450Z,11
2023-05-05T01:56:18.472Z,11
2023-05-05T01:57:18.438Z,11
2023-05-05T01:58:18.513Z,11
2023-05-05T01:59:18.440Z,11
2023-05-05T02:00:18.436Z,11
2023-05-05T02:01:18.472Z,11
2023-05-05T02:02:18.449Z,11
2023-05-05T02:03:18.541Z,11
2023-05-05T02:04:18.490Z,11
2023-05-05T02:05:18.440Z,11
2023-05-05T02:06:18.423Z,11
2023-05-05T02:07:18.457Z,11
2023-05-05T02:08:18.435Z,11
2023-05-05T02:09:18.466Z,11
2023-05-05T02:10:18.521Z,11
2023-05-05T02:11:18.454Z,11
2023-05-05T02:12:18.447Z,11
2023-05-05T02:13:18.578Z,11
2023-05-05T02:14:18.456Z,11
2023-05-05T02:15:18.478Z,11
2023-05-05T02:16:18.569Z,11
2023-05-05T02:17:18.462Z,11
2023-05-05T02:18:18.456Z,11
2023-05-05T02:19:18.506Z,11
2023-05-05T02:20:18.483Z,11
2023-05-05T02:21:18.466Z,10.5
2023-05-05T02:22:18.465Z,10.5
2023-05-05T02:23:18.469Z,10.5
2023-05-05T02:24:18.519Z,10.5
2023-05-05T02:25:18.459Z,10.5
2023-05-05T02:26:18.480Z,10.5
2023-05-05T02:27:18.455Z,10.5
2023-05-05T02:28:18.504Z,10.5
2023-05-05T02:29:18.504Z,10.5
2023-05-05T02:30:18.479Z,10.5
2023-05-05T02:31:18.492Z,10.5
2023-05-05T02:32:18.485Z,10.5
2023-05-05T02:33:18.461Z,10.5
2023-05-05T02:34:18.486Z,10.5
2023-05-05T02:35:18.500Z,10.5
2023-05-05T02:36:18.480Z,10.5
2023-05-05T02:37:18.484Z,10.5
2023-05-05T02:38:18.511Z,10.5
2023-05-05T02:39:18.504Z,10.5
2023-05-05T02:40:18.487Z,10.5
2023-05-05T02:41:18.487Z,10.5
2023-05-05T02:42:18.488Z,10.2
2023-05-05T02:43:18.544Z,10.2
2023-05-05T02:44:18.496Z,10.2
2023-05-05T02:45:18.518Z,10.2
2023-05-05T02:46:18.539Z,10.2
2023-05-05T02:47:18.518Z,10.2
2023-05-05T02:48:18.537Z,10.2
2023-05-05T02:49:18.518Z,10.2
2023-05-05T02:50:18.524Z,10.2
2023-05-05T02:51:18.493Z,10.2
2023-05-05T02:52:18.495Z,10.2
2023-05-05T02:53:18.514Z,10.2
2023-05-05T02:54:18.567Z,10.2
2023-05-05T02:55:18.516Z,10.2
2023-05-05T02:56:18.516Z,10.2
2023-05-05T02:57:18.465Z,10
2023-05-05T02:58:18.510Z,10
2023-05-05T02:59:18.567Z,10
2023-05-05T03:00:18.519Z,10
2023-05-05T03:01:18.530Z,10
2023-05-05T03:02:18.480Z,10
2023-05-05T03:03:18.579Z,10
2023-05-05T03:04:18.480Z,10
2023-05-05T03:05:18.518Z,10
2023-05-05T03:06:18.508Z,10
2023-05-05T03:07:18.491Z,10
2023-05-05T03:08:18.535Z,10
2023-05-05T03:09:18.519Z,10
2023-05-05T03:10:18.529Z,10
2023-05-05T03:11:18.578Z,10
2023-05-05T03:12:18.522Z,10
2023-05-05T03:13:18.525Z,10
2023-05-05T03:14:18.559Z,10
2023-05-05T03:15:18.535Z,10
2023-05-05T03:16:18.498Z,10
2023-05-05T03:17:18.526Z,10
2023-05-05T03:18:18.534Z,10
2023-05-05T03:19:18.525Z,10
2023-05-05T03:20:18.482Z,10
2023-05-05T03:21:18.541Z,10
2023-05-05T03:22:18.520Z,10
2023-05-05T03:23:18.547Z,10
2023-05-05T03:24:18.496Z,10
2023-05-05T03:25:18.523Z,10
2023-05-05T03:26:18.501Z,10
2023-05-05T03:27:18.512Z,10
2023-05-05T03:28:18.535Z,10
2023-05-05T03:29:18.537Z,10
2023-05-05T03:30:18.548Z,10
2023-05-05T03:31:18.698Z,10
2023-05-05T03:32:18.507Z,10
2023-05-05T03:33:18.529Z,10
2023-05-05T03:34:18.512Z,10
2023-05-05T03:35:18.506Z,10
2023-05-05T03:36:18.499Z,10
2023-05-05T03:37:18.503Z,10
2023-05-05T03:38:18.509Z,10
2023-05-05T03:39:18.551Z,10
2023-05-05T03:40:18.540Z,9.7
2023-05-05T03:41:18.517Z,9.7
2023-05-05T03:42:18.517Z,9.7
2023-05-05T03:43:19.522Z,9.7
2023-05-05T03:44:18.547Z,9.7
2023-05-05T03:45:18.489Z,9.7
2023-05-05T03:46:18.558Z,9.7
2023-05-05T03:47:18.542Z,9.7
2023-05-05T03:48:18.569Z,9.7
2023-05-05T03:49:18.512Z,9.7
2023-05-05T03:50:18.531Z,9.7
2023-05-05T03:51:18.537Z,9.7
2023-05-05T03:52:18.494Z,9.7
2023-05-05T03:53:18.503Z,9.7
2023-05-05T03:54:18.514Z,9.7
2023-05-05T03:55:18.531Z,9.8
2023-05-05T03:56:18.601Z,9.8
2023-05-05T03:57:18.505Z,9.8
2023-05-05T03:58:18.512Z,9.8
2023-05-05T03:59:18.552Z,9.8
2023-05-05T04:00:18.512Z,9.8
2023-05-05T04:01:18.521Z,9.8
2023-05-05T04:02:18.924Z,9.8
2023-05-05T04:03:18.712Z,9.8
2023-05-05T04:04:18.605Z,9.8
2023-05-05T04:05:18.546Z,9.8
2023-05-05T04:06:18.591Z,9.8
2023-05-05T04:07:18.564Z,9.8
2023-05-05T04:08:18.545Z,9.8
2023-05-05T04:09:18.530Z,9.8
2023-05-05T04:10:18.605Z,9.8
2023-05-05T04:11:18.528Z,9.8
2023-05-05T04:12:18.560Z,9.8
2023-05-05T04:13:18.578Z,9.8
2023-05-05T04:14:18.525Z,9.8
2023-05-05T04:15:18.540Z,9.8
2023-05-05T04:16:18.586Z,9.8
2023-05-05T04:17:18.557Z,9.8
2023-05-05T04:18:18.550Z,9.8
2023-05-05T04:19:18.509Z,9.8
2023-05-05T04:20:18.556Z,10.3
2023-05-05T04:21:18.532Z,10.3
2023-05-05T04:22:18.529Z,10.3
2023-05-05T04:23:18.559Z,10.3
2023-05-05T04:24:18.576Z,10.3
2023-05-05T04:25:18.526Z,10.3
2023-05-05T04:26:18.516Z,10.3
2023-05-05T04:27:18.521Z,10.3
2023-05-05T04:28:20.945Z,10.3
2023-05-05T04:29:18.568Z,10.3
2023-05-05T04:30:18.525Z,10.3
2023-05-05T04:31:18.568Z,10.6
2023-05-05T04:32:18.524Z,10.6
2023-05-05T04:33:18.526Z,10.6
2023-05-05T04:34:18.559Z,10.6
2023-05-05T04:35:18.539Z,10.6
2023-05-05T04:36:18.529Z,10.8
2023-05-05T04:37:18.527Z,10.8
2023-05-05T04:38:18.607Z,10.8
2023-05-05T04:39:18.516Z,10.8
2023-05-05T04:40:18.571Z,10.8
2023-05-05T04:41:18.523Z,10.8
2023-05-05T04:42:18.536Z,10.8
2023-05-05T04:43:18.527Z,10.8
2023-05-05T04:44:18.521Z,10.8
2023-05-05T04:45:18.537Z,10.8
2023-05-05T04:46:18.540Z,10.8
2023-05-05T04:47:18.539Z,10.8
2023-05-05T04:48:18.588Z,11.3
2023-05-05T04:49:18.534Z,11.3
2023-05-05T04:50:18.526Z,11.3
2023-05-05T04:51:18.536Z,11.3
2023-05-05T04:52:18.536Z,11.3
2023-05-05T04:53:18.539Z,11.3
2023-05-05T04:54:18.574Z,11.8
2023-05-05T04:55:18.569Z,11.8
2023-05-05T04:56:18.614Z,11.8
2023-05-05T04:57:18.536Z,11.8
2023-05-05T04:58:18.523Z,11.8
2023-05-05T04:59:18.545Z,12.3
2023-05-05T05:00:18.553Z,12.3
2023-05-05T05:01:18.513Z,12.3
2023-05-05T05:02:18.603Z,12.3
2023-05-05T05:03:18.616Z,12.3
2023-05-05T05:04:18.723Z,12.3
2023-05-05T05:05:18.559Z,12.8
2023-05-05T05:06:18.548Z,12.8
2023-05-05T05:07:18.545Z,12.8
2023-05-05T05:08:18.614Z,12.8
2023-05-05T05:09:18.550Z,12.8
2023-05-05T05:10:18.571Z,12.8
2023-05-05T05:11:18.529Z,13.4
2023-05-05T05:12:18.503Z,13.4
2023-05-05T05:13:18.752Z,13.4
2023-05-05T05:14:18.541Z,13.4
2023-05-05T05:15:18.522Z,13.4
2023-05-05T05:16:18.582Z,13.4
2023-05-05T05:17:18.598Z,13.4
2023-05-05T05:18:18.563Z,13.9
2023-05-05T05:19:18.555Z,13.9
2023-05-05T05:20:18.518Z,13.9
2023-05-05T05:21:18.552Z,13.9
2023-05-05T05:22:18.508Z,13.9
2023-05-05T05:23:18.536Z,13.9
2023-05-05T05:24:18.508Z,14.4
2023-05-05T05:25:18.567Z,14.4
2023-05-05T05:26:18.531Z,14.4
2023-05-05T05:27:18.518Z,14.5
2023-05-05T05:28:18.574Z,14.5
2023-05-05T05:29:18.574Z,14.5
2023-05-05T05:30:18.575Z,14.5
2023-05-05T05:31:18.582Z,14.5
2023-05-05T05:32:18.579Z,14.5
2023-05-05T05:33:18.551Z,14.5
2023-05-05T05:34:18.560Z,14.9
2023-05-05T05:35:18.562Z,14.9
2023-05-05T05:36:18.565Z,14.9
2023-05-05T05:37:18.557Z,14.9
2023-05-05T05:38:18.597Z,14.9
2023-05-05T05:39:18.535Z,14.9
2023-05-05T05:40:18.534Z,14.9
2023-05-05T05:41:18.603Z,14.9
2023-05-05T05:42:18.528Z,14.9
2023-05-05T05:43:18.525Z,15.4
2023-05-05T05:44:18.568Z,15.4
2023-05-05T05:45:18.527Z,15.4
2023-05-05T05:46:18.566Z,15.4
2023-05-05T05:47:18.563Z,15.4
2023-05-05T05:48:18.620Z,15.4
2023-05-05T05:49:18.538Z,15.4
2023-05-05T05:50:18.588Z,15.4
2023-05-05T05:51:18.538Z,15.4
2023-05-05T05:52:18.539Z,15.4
2023-05-05T05:53:18.598Z,15.4
2023-05-05T05:54:18.541Z,15.4
2023-05-05T05:55:18.541Z,15.9
2023-05-05T05:56:18.615Z,15.9
2023-05-05T05:57:18.526Z,15.9
2023-05-05T05:58:18.558Z,15.9
2023-05-05T05:59:18.563Z,15.9
2023-05-05T06:00:18.588Z,15.9
2023-05-05T06:01:18.582Z,15.9
2023-05-05T06:02:18.644Z,15.9
2023-05-05T06:03:18.746Z,15.9
2023-05-05T06:04:18.588Z,16.5
2023-05-05T06:05:18.564Z,16.5
2023-05-05T06:06:18.535Z,16.5
2023-05-05T06:07:18.578Z,16.5
2023-05-05T06:08:18.558Z,16.5
2023-05-05T06:09:18.558Z,16.5
2023-05-05T06:10:26.560Z,16.5
2023-05-05T06:11:18.536Z,17
2023-05-05T06:12:18.573Z,17
2023-05-05T06:13:18.585Z,17
2023-05-05T06:14:20.031Z,17
2023-05-05T06:15:18.526Z,17
2023-05-05T06:16:18.647Z,17
2023-05-05T06:17:18.549Z,17
2023-05-05T06:18:18.632Z,17
2023-05-05T06:19:18.624Z,17
2023-05-05T06:20:18.527Z,17.4
2023-05-05T06:21:18.532Z,17.5
2023-05-05T06:22:18.560Z,17.5
2023-05-05T06:23:18.577Z,17.5
2023-05-05T06:24:18.566Z,17.5
2023-05-05T06:25:18.587Z,17.5
2023-05-05T06:26:18.570Z,17.5
2023-05-05T06:27:18.533Z,17.5
2023-05-05T06:28:18.575Z,17.5
2023-05-05T06:29:18.573Z,18
2023-05-05T06:30:18.623Z,18
2023-05-05T06:31:18.630Z,18
2023-05-05T06:32:18.537Z,18
2023-05-05T06:33:18.570Z,18
2023-05-05T06:34:18.567Z,18
2023-05-05T06:35:18.566Z,18
2023-05-05T06:36:18.626Z,18
2023-05-05T06:37:18.625Z,18
2023-05-05T06:38:18.571Z,18
2023-05-05T06:39:18.574Z,18.5
2023-05-05T06:40:18.565Z,18.5
2023-05-05T06:41:18.568Z,18.5
2023-05-05T06:42:18.585Z,18.5
2023-05-05T06:43:18.578Z,18.5
2023-05-05T06:44:18.581Z,18.5
2023-05-05T06:45:18.580Z,18.5
2023-05-05T06:46:18.691Z,18.5
2023-05-05T06:47:18.605Z,18.5
2023-05-05T06:48:18.570Z,19.1
2023-05-05T06:49:18.578Z,19.1
2023-05-05T06:50:18.572Z,19.1
2023-05-05T06:51:18.565Z,19.1
2023-05-05T06:52:18.618Z,19.1
2023-05-05T06:53:18.565Z,19.1
2023-05-05T06:54:18.571Z,19.1
2023-05-05T06:55:18.576Z,19.1
2023-05-05T06:56:18.573Z,19.1
2023-05-05T06:57:18.541Z,19.1
2023-05-05T06:58:18.592Z,19.1
2023-05-05T06:59:18.643Z,19.1
2023-05-05T07:00:18.557Z,19.6
2023-05-05T07:01:18.667Z,19.6
2023-05-05T07:02:18.548Z,19.6
2023-05-05T07:03:18.688Z,19.6
2023-05-05T07:04:18.828Z,19.6
2023-05-05T07:05:18.590Z,19.6
2023-05-05T07:06:18.578Z,19.6
2023-05-05T07:07:18.553Z,19.6
2023-05-05T07:08:18.582Z,19.6
2023-05-05T07:09:18.566Z,19.6
2023-05-05T07:10:18.557Z,19.6
2023-05-05T07:11:19.877Z,19.6
2023-05-05T07:12:18.590Z,19.6
2023-05-05T07:13:18.601Z,19.6
2023-05-05T07:14:18.583Z,19.6
2023-05-05T07:15:28.180Z,19.6
2023-05-05T07:16:18.588Z,19.6
2023-05-05T07:17:18.546Z,19.6
2023-05-05T07:18:18.591Z,19.6
2023-05-05T07:19:18.586Z,19.6
2023-05-05T07:20:18.634Z,19.6
2023-05-05T07:21:18.566Z,19.6
2023-05-05T07:22:18.534Z,19.6
2023-05-05T07:23:18.578Z,19.6
2023-05-05T07:24:18.551Z,19.6
2023-05-05T07:25:18.543Z,19.6
2023-05-05T07:26:18.610Z,19.6
2023-05-05T07:27:18.600Z,19.6
2023-05-05T07:28:18.576Z,19.6
2023-05-05T07:29:18.582Z,20.1
2023-05-05T07:30:19.498Z,20.1
2023-05-05T07:31:18.578Z,20.1
2023-05-05T07:32:18.657Z,20.1
2023-05-05T07:33:18.604Z,20.1
2023-05-05T07:34:18.586Z,20.1
2023-05-05T07:35:18.793Z,20.1
2023-05-05T07:36:18.541Z,20.1
2023-05-05T07:37:18.600Z,20.1
2023-05-05T07:38:18.585Z,20.1
2023-05-05T07:39:18.592Z,20.1
2023-05-05T07:40:18.553Z,20.6
2023-05-05T07:41:18.578Z,20.6
2023-05-05T07:42:18.590Z,20.6
2023-05-05T07:43:18.613Z,20.6
2023-05-05T07:44:18.589Z,20.6
2023-05-05T07:45:18.626Z,20.6
2023-05-05T07:46:18.648Z,20.6
2023-05-05T07:47:18.549Z,20.6
2023-05-05T07:48:18.547Z,20.6
2023-05-05T07:49:18.553Z,20.6
2023-05-05T07:50:18.583Z,20.6
2023-05-05T07:51:18.591Z,20.6
2023-05-05T07:52:19.416Z,20.6
2023-05-05T07:53:18.563Z,20.6
2023-05-05T07:54:18.582Z,21.1
2023-05-05T07:55:18.597Z,21.1
2023-05-05T07:56:19.297Z,21.1
2023-05-05T07:57:18.583Z,21.1
2023-05-05T07:58:18.633Z,21.1
2023-05-05T07:59:18.552Z,21.1
2023-05-05T08:00:18.569Z,21.1
2023-05-05T08:01:18.589Z,21.7
2023-05-05T08:02:18.580Z,21.7
2023-05-05T08:03:18.707Z,21.7
2023-05-05T08:04:18.624Z,21.7
2023-05-05T08:05:18.576Z,21.7
2023-05-05T08:06:18.546Z,21.7
2023-05-05T08:07:18.559Z,21.7
2023-05-05T08:08:18.643Z,21.7
2023-05-05T08:09:18.572Z,22.2
2023-05-05T08:10:18.558Z,22.2
2023-05-05T08:11:18.559Z,22.2
2023-05-05T08:12:18.567Z,22.2
2023-05-05T08:13:18.740Z,22.2
2023-05-05T08:14:18.598Z,22.2
2023-05-05T08:15:18.586Z,22.2
2023-05-05T08:16:18.637Z,22.2
2023-05-05T08:17:18.588Z,22.2
2023-05-05T08:18:18.611Z,22.2
2023-05-05T08:19:28.643Z,22.2
2023-05-05T08:20:18.564Z,22.2
2023-05-05T08:21:18.598Z,22.2
2023-05-05T08:22:18.649Z,22.2
2023-05-05T08:23:18.610Z,22.7
2023-05-05T08:24:18.603Z,22.7
2023-05-05T08:25:18.604Z,22.7
2023-05-05T08:26:18.654Z,22.7
2023-05-05T08:27:18.628Z,22.7
2023-05-05T08:28:18.602Z,22.7
2023-05-05T08:29:18.601Z,22.7
2023-05-05T08:30:18.558Z,22.7
2023-05-05T08:31:18.634Z,22.7
2023-05-05T08:32:18.639Z,22.2
2023-05-05T08:33:18.626Z,22.2
2023-05-05T08:34:18.601Z,22.2
2023-05-05T08:35:18.578Z,22.2
2023-05-05T08:36:18.618Z,22.2
2023-05-05T08:37:18.596Z,22.2
2023-05-05T08:38:18.662Z,21.6
2023-05-05T08:39:18.572Z,21.6
2023-05-05T08:40:18.571Z,21.6
2023-05-05T08:41:18.612Z,21.6
2023-05-05T08:42:32.884Z,21.6
2023-05-05T08:43:18.595Z,21.6
2023-05-05T08:44:18.614Z,21.1
2023-05-05T08:45:18.605Z,21.1
2023-05-05T08:46:18.683Z,21.1
2023-05-05T08:47:18.573Z,21.1
2023-05-05T08:48:18.613Z,21.1
2023-05-05T08:49:18.617Z,21.1
2023-05-05T08:50:18.617Z,21.1
2023-05-05T08:51:18.645Z,21.1
2023-05-05T08:52:18.636Z,21.1
2023-05-05T08:53:18.662Z,21.1
2023-05-05T08:54:18.649Z,21.1
2023-05-05T08:55:18.574Z,20.6
2023-05-05T08:56:18.605Z,20.6
2023-05-05T08:57:18.656Z,20.6
2023-05-05T08:58:18.605Z,20.6
2023-05-05T08:59:18.616Z,20.6
2023-05-05T09:00:18.602Z,20.6
2023-05-05T09:01:18.659Z,20.6
2023-05-05T09:02:18.621Z,20.6
2023-05-05T09:03:18.736Z,20.6
2023-05-05T09:04:18.605Z,20.6
2023-05-05T09:05:18.615Z,20.6
2023-05-05T09:06:18.615Z,20.6
2023-05-05T09:07:18.598Z,20.6
2023-05-05T09:08:18.685Z,20.5
2023-05-05T09:09:18.613Z,20.5
2023-05-05T09:10:18.631Z,20.5
2023-05-05T09:11:18.607Z,20.5
2023-05-05T09:12:18.616Z,20.5
2023-05-05T09:13:18.680Z,20.5
2023-05-05T09:14:18.622Z,20.5
2023-05-05T09:15:18.761Z,20.5
2023-05-05T09:16:18.667Z,20.5
2023-05-05T09:17:18.600Z,20.5
2023-05-05T09:18:18.609Z,21.1
2023-05-05T09:19:18.622Z,21.1
2023-05-05T09:20:18.580Z,21.1
2023-05-05T09:21:18.607Z,21.1
2023-05-05T09:22:18.607Z,21.1
2023-05-05T09:23:18.620Z,21.1
2023-05-05T09:24:18.616Z,21.7
2023-05-05T09:25:18.616Z,21.7
2023-05-05T09:26:18.584Z,21.7
2023-05-05T09:27:18.585Z,21.7
2023-05-05T09:28:18.701Z,21.7
2023-05-05T09:29:18.616Z,21.7
2023-05-05T09:30:18.618Z,21.7
2023-05-05T09:31:18.679Z,21.7
2023-05-05T09:32:18.656Z,21.7
2023-05-05T09:33:18.700Z,22.2
2023-05-05T09:34:18.626Z,22.2
2023-05-05T09:35:18.656Z,22.2
2023-05-05T09:36:18.642Z,22.2
2023-05-05T09:37:18.617Z,22.2
2023-05-05T09:38:18.694Z,22.2
2023-05-05T09:39:18.626Z,22.2
2023-05-05T09:40:18.672Z,22.2
2023-05-05T09:41:18.636Z,22.7
2023-05-05T09:42:18.613Z,22.7
2023-05-05T09:43:18.597Z,22.7
2023-05-05T09:44:18.624Z,22.7
2023-05-05T09:45:18.689Z,22.7
2023-05-05T09:46:18.704Z,22.7
2023-05-05T09:47:29.638Z,23.2
2023-05-05T09:48:18.726Z,23.2
2023-05-05T09:49:18.645Z,23.2
2023-05-05T09:50:19.108Z,23.2
2023-05-05T09:51:18.631Z,23.2
2023-05-05T09:52:18.642Z,23.2
2023-05-05T09:53:18.657Z,23.2
2023-05-05T09:54:18.595Z,23.2
2023-05-05T09:55:18.627Z,23.2
2023-05-05T09:56:18.594Z,23.2
2023-05-05T09:57:18.634Z,23.2
2023-05-05T09:58:18.701Z,23.2
2023-05-05T09:59:18.654Z,23.2
2023-05-05T10:00:18.741Z,23.2
2023-05-05T10:01:18.682Z,23.2
2023-05-05T10:02:18.626Z,23.2
2023-05-05T10:03:18.644Z,22.7
2023-05-05T10:04:18.634Z,22.7
2023-05-05T10:05:18.851Z,22.7
2023-05-05T10:06:18.632Z,22.7
2023-05-05T10:07:18.622Z,22.3
2023-05-05T10:08:18.681Z,22.2
2023-05-05T10:09:18.621Z,22.2
2023-05-05T10:10:18.771Z,22.2
2023-05-05T10:11:18.636Z,22.2
2023-05-05T10:12:18.620Z,22.2
2023-05-05T10:13:18.727Z,22.2
2023-05-05T10:14:18.633Z,22.2
2023-05-05T10:15:18.643Z,22.2
2023-05-05T10:16:18.661Z,22.2
2023-05-05T10:17:18.626Z,22.2
2023-05-05T10:18:18.626Z,22.2
2023-05-05T10:19:18.652Z,22.2
2023-05-05T10:20:18.647Z,22.2
2023-05-05T10:21:18.635Z,22.2
2023-05-05T10:22:18.629Z,22.2
2023-05-05T10:23:18.627Z,22.2
2023-05-05T10:24:18.619Z,22.2
2023-05-05T10:25:18.682Z,22.2
2023-05-05T10:26:18.643Z,22.2
2023-05-05T10:27:18.789Z,22.2
2023-05-05T10:28:18.625Z,22.2
2023-05-05T10:29:18.618Z,22.2
2023-05-05T10:30:18.626Z,22.2
2023-05-05T10:31:25.939Z,22.2
2023-05-05T10:32:47.291Z,22.2
2023-05-05T10:34:18.635Z,21.7
2023-05-05T10:35:18.625Z,21.7
2023-05-05T10:36:18.621Z,21.7
2023-05-05T10:37:18.648Z,21.7
2023-05-05T10:38:18.697Z,21.7
2023-05-05T10:39:18.638Z,21.7
2023-05-05T10:40:18.630Z,21.7
2023-05-05T10:41:18.615Z,21.7
2023-05-05T10:42:18.627Z,21.7
2023-05-05T10:43:18.625Z,21.7
2023-05-05T10:44:18.669Z,21.7
2023-05-05T10:45:18.670Z,21.7
2023-05-05T10:46:18.658Z,21.7
2023-05-05T10:47:18.620Z,21.7
2023-05-05T10:48:18.719Z,21.7
2023-05-05T10:49:18.629Z,21.7
2023-05-05T10:50:18.625Z,21.7
2023-05-05T10:51:24.118Z,21.7
2023-05-05T10:52:18.628Z,21.7
2023-05-05T10:53:18.713Z,21.7
2023-05-05T10:54:18.691Z,21.7
2023-05-05T10:55:18.645Z,21.7
2023-05-05T10:56:18.622Z,21.7
2023-05-05T10:57:18.620Z,21.7
2023-05-05T10:58:18.631Z,21.7
2023-05-05T10:59:18.684Z,21.7
2023-05-05T11:00:18.669Z,22.1
2023-05-05T11:01:18.694Z,22.1
2023-05-05T11:02:18.639Z,22.1
2023-05-05T11:03:18.682Z,22.1
2023-05-05T11:04:18.709Z,22.1
2023-05-05T11:05:18.685Z,22.1
2023-05-05T11:06:18.668Z,22.1
2023-05-05T11:07:18.654Z,22.1
2023-05-05T11:08:18.640Z,22.1
2023-05-05T11:09:18.637Z,22.1
2023-05-05T11:10:18.715Z,22.3
2023-05-05T11:11:18.634Z,22.3
2023-05-05T11:12:18.682Z,22.3
2023-05-05T11:13:18.886Z,22.3
2023-05-05T11:14:18.632Z,22.3
2023-05-05T11:15:18.677Z,22.3
2023-05-05T11:16:18.652Z,22.8
2023-05-05T11:17:18.647Z,22.8
2023-05-05T11:18:18.639Z,22.8
2023-05-05T11:19:18.678Z,22.8
2023-05-05T11:20:18.671Z,22.8
2023-05-05T11:21:18.702Z,22.8
2023-05-05T11:22:18.632Z,22.8
2023-05-05T11:23:18.656Z,22.8
2023-05-05T11:24:18.649Z,22.8
2023-05-05T11:25:18.639Z,22.8
2023-05-05T11:26:18.634Z,22.8
2023-05-05T11:27:18.680Z,22.8
2023-05-05T11:28:18.689Z,22.8
2023-05-05T11:29:18.724Z,22.8
2023-05-05T11:30:18.651Z,22.8
2023-05-05T11:31:18.705Z,22.8
2023-05-05T11:32:18.687Z,22.8
2023-05-05T11:33:18.680Z,22.8
2023-05-05T11:34:18.684Z,22.8
2023-05-05T11:35:18.647Z,22.8
2023-05-05T11:36:18.669Z,22.8
2023-05-05T11:37:18.729Z,22.8
2023-05-05T11:38:18.703Z,22.8
2023-05-05T11:39:18.681Z,22.8
2023-05-05T11:40:18.674Z,22.8
2023-05-05T11:41:18.697Z,22.7
2023-05-05T11:42:18.669Z,22.7
2023-05-05T11:43:18.641Z,22.7
2023-05-05T11:44:18.685Z,22.7
2023-05-05T11:45:18.638Z,22.7
2023-05-05T11:46:18.727Z,22.7
2023-05-05T11:47:18.673Z,22.7
2023-05-05T11:48:18.683Z,22.7
2023-05-05T11:49:18.673Z,22.7
2023-05-05T11:50:18.906Z,22.7
2023-05-05T11:51:18.813Z,22.7
2023-05-05T11:52:18.686Z,22.7
2023-05-05T11:53:18.685Z,22.7
2023-05-05T11:54:18.682Z,22.7
2023-05-05T11:55:18.651Z,22.7
2023-05-05T11:56:18.725Z,22.7
2023-05-05T11:57:18.673Z,22.7
2023-05-05T11:58:18.685Z,22.8
2023-05-05T11:59:18.646Z,22.8
2023-05-05T12:00:18.677Z,22.8
2023-05-05T12:01:18.654Z,22.8
2023-05-05T12:02:18.723Z,22.8
2023-05-05T12:03:18.711Z,22.8
2023-05-05T12:04:18.655Z,22.8
2023-05-05T12:05:18.661Z,22.8
2023-05-05T12:06:18.676Z,22.8
2023-05-05T12:07:18.696Z,22.8
2023-05-05T12:08:18.714Z,22.8
2023-05-05T12:09:18.651Z,22.8
2023-05-05T12:10:18.699Z,22.8
2023-05-05T12:11:18.692Z,22.8
2023-05-05T12:12:19.757Z,22.8
2023-05-05T12:13:18.797Z,22.8
2023-05-05T12:14:18.681Z,22.8
2023-05-05T12:15:18.726Z,22.8
2023-05-05T12:16:18.753Z,22.8
2023-05-05T12:17:18.724Z,22.8
2023-05-05T12:18:18.733Z,22.6
2023-05-05T12:19:18.749Z,22.6
2023-05-05T12:20:18.695Z,22.6
2023-05-05T12:21:18.690Z,22.6
2023-05-05T12:22:18.707Z,22.6
2023-05-05T12:23:18.682Z,22.6
2023-05-05T12:24:18.729Z,22.6
2023-05-05T12:25:18.697Z,22.6
2023-05-05T12:26:18.682Z,22.6
2023-05-05T12:27:18.709Z,22.6
2023-05-05T12:28:18.863Z,22.6
2023-05-05T12:29:18.700Z,22.6
2023-05-05T12:30:19.739Z,22.6
2023-05-05T12:31:18.727Z,22.6
2023-05-05T12:32:18.745Z,22.6
2023-05-05T12:33:18.719Z,22.6
2023-05-05T12:34:18.702Z,22.6
2023-05-05T12:35:18.696Z,23.2
2023-05-05T12:36:18.694Z,23.2
2023-05-05T12:37:18.730Z,23.2
2023-05-05T12:38:18.743Z,23.2
2023-05-05T12:39:18.700Z,23.2
2023-05-05T12:40:18.728Z,23.2
2023-05-05T12:41:18.690Z,23.2
2023-05-05T12:42:18.714Z,23.2
2023-05-05T12:43:18.719Z,23.2
2023-05-05T12:44:18.739Z,23.2
2023-05-05T12:45:18.764Z,23.2
2023-05-05T12:46:18.778Z,23.2
2023-05-05T12:47:18.691Z,23.2
2023-05-05T12:48:18.756Z,23.2
2023-05-05T12:49:18.687Z,23.2
2023-05-05T12:50:18.760Z,23.2
2023-05-05T12:51:18.783Z,23.2
2023-05-05T12:52:18.836Z,23.2
2023-05-05T12:53:18.723Z,23.2
2023-05-05T12:54:18.755Z,23.2
2023-05-05T12:55:18.779Z,23.2
2023-05-05T12:56:18.706Z,23.2
2023-05-05T12:57:18.991Z,23.4
2023-05-05T12:58:18.751Z,23.4
2023-05-05T12:59:18.740Z,23.4
2023-05-05T13:00:18.799Z,23.4
2023-05-05T13:01:18.727Z,23.4
2023-05-05T13:02:18.901Z,23.4
2023-05-05T13:03:18.838Z,23.4
2023-05-05T13:04:18.771Z,23.4
2023-05-05T13:05:18.728Z,23.4
2023-05-05T13:06:18.765Z,23.4
2023-05-05T13:07:18.766Z,23.4
2023-05-05T13:08:18.719Z,23.4
2023-05-05T13:09:18.725Z,23.4
2023-05-05T13:10:18.829Z,23.4
2023-05-05T13:11:18.799Z,23.4
2023-05-05T13:12:18.711Z,23.4
2023-05-05T13:13:18.852Z,23.4
2023-05-05T13:14:18.712Z,23.4
2023-05-05T13:15:18.729Z,23.4
2023-05-05T13:16:18.760Z,23.4
2023-05-05T13:17:18.806Z,23.9
2023-05-05T13:18:18.781Z,23.9
2023-05-05T13:19:18.774Z,23.9
2023-05-05T13:20:18.759Z,23.9
2023-05-05T13:21:18.705Z,23.9
2023-05-05T13:22:18.759Z,23.9
2023-05-05T13:23:18.748Z,23.9
2023-05-05T13:24:28.600Z,23.9
2023-05-05T13:25:18.749Z,23.9
2023-05-05T13:26:18.740Z,23.9
2023-05-05T13:27:19.790Z,23.9